PWSweather.com
Personal Weather Stations
Station Observations
NIGHT1
EastleighGB

EastleighGB

Lat: 50.966307, Lon: -1.380982

Elevation: 78

Station Type: Davis VP2 with daytime FARS

Latest ConditionsUpdated 6:40:00 AM GMT Tuesday, Sep 2, 2014
Currently Today's Max Today's Min Today's Average
Temperature 54.9°F12.7°C 59.7°F15.4°C 53.1°F11.7°C 55.0°F12.8°C
Dew Point 53.2°F11.8°C 58.9°F14.9°C 51.3°F10.7°C 53.5°F11.9°C
Winds 2.0 mph NE3.2 kmh NE 2.0 mph N3.2 kmh N - 1.1 mph 1.8 kmh
Wind Gusts 3.0 mph4.8 kmh 8.0 mph12.9 kmh - -
Humidity 94% 97% 93% 95%
Pressure 30.17 in1021.7 mb 30.17 in1021.7 mb 30.14 in1020.7 mb -
Hour Temp Dew Point Humidity Winds Wind Gusts Pressure Precip Precip Rate Daily Precip Total
06:40 AM 54.9°F12.7°C 53.2°F11.8°C 94% 2.0 mph NE3.2 kmh NE 3.0 mph4.8 kmh 30.17 in1021.7 mb 0.00 in0.0 mm 0.00 in/hr0.0 mm/hr 0.00 in0.0 mm
06:35 AM 54.9°F12.7°C 53.2°F11.8°C 94% 2.0 mph NNE3.2 kmh NNE 8.0 mph12.9 kmh 30.17 in1021.7 mb 0.00 in0.0 mm 0.00 in/hr0.0 mm/hr 0.00 in0.0 mm
06:30 AM 54.7°F12.6°C 53.0°F11.7°C 94% 2.0 mph N3.2 kmh N 8.0 mph12.9 kmh 30.16 in1021.3 mb 0.00 in0.0 mm 0.00 in/hr0.0 mm/hr 0.00 in0.0 mm
06:25 AM 54.7°F12.6°C 53.3°F11.8°C 95% 2.0 mph NNW3.2 kmh NNW 5.0 mph8.0 kmh 30.16 in1021.3 mb 0.00 in0.0 mm 0.00 in/hr0.0 mm/hr 0.00 in0.0 mm
06:20 AM 54.3°F12.4°C 52.9°F11.6°C 95% 1.0 mph NNW1.6 kmh NNW 5.0 mph8.0 kmh 30.16 in1021.3 mb 0.00 in0.0 mm 0.00 in/hr0.0 mm/hr 0.00 in0.0 mm
06:15 AM 54.0°F12.2°C 52.6°F11.4°C 95% 1.0 mph NNW1.6 kmh NNW 5.0 mph8.0 kmh 30.16 in1021.3 mb 0.00 in0.0 mm 0.00 in/hr0.0 mm/hr 0.00 in0.0 mm
06:10 AM 53.8°F12.1°C 52.4°F11.3°C 95% 1.0 mph NNW1.6 kmh NNW 3.0 mph4.8 kmh 30.16 in1021.3 mb 0.00 in0.0 mm 0.00 in/hr0.0 mm/hr 0.00 in0.0 mm
06:05 AM 53.8°F12.1°C 52.1°F11.2°C 94% 1.0 mph N1.6 kmh N 4.0 mph6.4 kmh 30.15 in1021.0 mb 0.00 in0.0 mm 0.00 in/hr0.0 mm/hr 0.00 in0.0 mm
06:00 AM 53.6°F12.0°C 51.9°F11.1°C 94% 1.0 mph N1.6 kmh N 4.0 mph6.4 kmh 30.15 in1021.0 mb 0.00 in0.0 mm 0.00 in/hr0.0 mm/hr 0.00 in0.0 mm
05:55 AM 53.4°F11.9°C 51.7°F10.9°C 94% 1.0 mph NNW1.6 kmh NNW 4.0 mph6.4 kmh 30.15 in1021.0 mb 0.00 in0.0 mm 0.00 in/hr0.0 mm/hr 0.00 in0.0 mm
05:50 AM 53.4°F11.9°C 51.7°F10.9°C 94% 1.0 mph NNW1.6 kmh NNW 5.0 mph8.0 kmh 30.15 in1021.0 mb 0.00 in0.0 mm 0.00 in/hr0.0 mm/hr 0.00 in0.0 mm
05:45 AM 53.2°F11.8°C 51.6°F10.9°C 94% 1.0 mph NNW1.6 kmh NNW 5.0 mph8.0 kmh 30.15 in1021.0 mb 0.00 in0.0 mm 0.00 in/hr0.0 mm/hr 0.00 in0.0 mm
05:40 AM 53.2°F11.8°C 51.6°F10.9°C 94% 1.0 mph N1.6 kmh N 4.0 mph6.4 kmh 30.15 in1021.0 mb 0.00 in0.0 mm 0.00 in/hr0.0 mm/hr 0.00 in0.0 mm
05:35 AM 53.2°F11.8°C 51.6°F10.9°C 94% 1.0 mph N1.6 kmh N 4.0 mph6.4 kmh 30.15 in1021.0 mb 0.00 in0.0 mm 0.00 in/hr0.0 mm/hr 0.00 in0.0 mm
05:30 AM 53.1°F11.7°C 51.4°F10.8°C 94% 1.0 mph NNE1.6 kmh NNE 3.0 mph4.8 kmh 30.15 in1021.0 mb 0.00 in0.0 mm 0.00 in/hr0.0 mm/hr 0.00 in0.0 mm
05:25 AM 53.1°F11.7°C 51.4°F10.8°C 94% 1.0 mph N1.6 kmh N 2.0 mph3.2 kmh 30.15 in1021.0 mb 0.00 in0.0 mm 0.00 in/hr0.0 mm/hr 0.00 in0.0 mm
05:20 AM 53.1°F11.7°C 51.4°F10.8°C 94% Calm Calm 2.0 mph3.2 kmh 30.15 in1021.0 mb 0.00 in0.0 mm 0.00 in/hr0.0 mm/hr 0.00 in0.0 mm
05:15 AM 53.1°F11.7°C 51.4°F10.8°C 94% Calm Calm 2.0 mph3.2 kmh 30.15 in1021.0 mb 0.00 in0.0 mm 0.00 in/hr0.0 mm/hr 0.00 in0.0 mm
05:10 AM 53.1°F11.7°C 51.4°F10.8°C 94% 1.0 mph N1.6 kmh N 2.0 mph3.2 kmh 30.15 in1021.0 mb 0.00 in0.0 mm 0.00 in/hr0.0 mm/hr 0.00 in0.0 mm
05:05 AM 53.1°F11.7°C 51.4°F10.8°C 94% 1.0 mph NNW1.6 kmh NNW 3.0 mph4.8 kmh 30.14 in1020.7 mb 0.00 in0.0 mm 0.00 in/hr0.0 mm/hr 0.00 in0.0 mm
05:00 AM 53.1°F11.7°C 51.4°F10.8°C 94% 1.0 mph NNW1.6 kmh NNW 4.0 mph6.4 kmh 30.14 in1020.7 mb 0.00 in0.0 mm 0.00 in/hr0.0 mm/hr 0.00 in0.0 mm
04:55 AM 53.1°F11.7°C 51.4°F10.8°C 94% 1.0 mph NNW1.6 kmh NNW 6.0 mph9.7 kmh 30.14 in1020.7 mb 0.00 in0.0 mm 0.00 in/hr0.0 mm/hr 0.00 in0.0 mm
04:50 AM 53.1°F11.7°C 51.4°F10.8°C 94% 1.0 mph NNW1.6 kmh NNW 6.0 mph9.7 kmh 30.14 in1020.7 mb 0.00 in0.0 mm 0.00 in/hr0.0 mm/hr 0.00 in0.0 mm
04:45 AM 53.1°F11.7°C 51.4°F10.8°C 94% 1.0 mph NNW1.6 kmh NNW 3.0 mph4.8 kmh 30.14 in1020.7 mb 0.00 in0.0 mm 0.00 in/hr0.0 mm/hr 0.00 in0.0 mm
04:40 AM 53.1°F11.7°C 51.4°F10.8°C 94% 1.0 mph N1.6 kmh N 5.0 mph8.0 kmh 30.14 in1020.7 mb 0.00 in0.0 mm 0.00 in/hr0.0 mm/hr 0.00 in0.0 mm
04:35 AM 53.1°F11.7°C 51.4°F10.8°C 94% 1.0 mph N1.6 kmh N 5.0 mph8.0 kmh 30.14 in1020.7 mb 0.00 in0.0 mm 0.00 in/hr0.0 mm/hr 0.00 in0.0 mm
04:30 AM 53.2°F11.8°C 51.6°F10.9°C 94% 2.0 mph N3.2 kmh N 5.0 mph8.0 kmh 30.14 in1020.7 mb 0.00 in0.0 mm 0.00 in/hr0.0 mm/hr 0.00 in0.0 mm
04:25 AM 53.2°F11.8°C 51.6°F10.9°C 94% 1.0 mph NNW1.6 kmh NNW 5.0 mph8.0 kmh 30.14 in1020.7 mb 0.00 in0.0 mm 0.00 in/hr0.0 mm/hr 0.00 in0.0 mm
04:20 AM 53.2°F11.8°C 51.3°F10.7°C 93% 1.0 mph NNW1.6 kmh NNW 3.0 mph4.8 kmh 30.14 in1020.7 mb 0.00 in0.0 mm 0.00 in/hr0.0 mm/hr 0.00 in0.0 mm
04:15 AM 53.2°F11.8°C 51.3°F10.7°C 93% 1.0 mph NNW1.6 kmh NNW 3.0 mph4.8 kmh 30.14 in1020.7 mb 0.00 in0.0 mm 0.00 in/hr0.0 mm/hr 0.00 in0.0 mm
04:10 AM 53.2°F11.8°C 51.3°F10.7°C 93% 1.0 mph N1.6 kmh N 2.0 mph3.2 kmh 30.14 in1020.7 mb 0.00 in0.0 mm 0.00 in/hr0.0 mm/hr 0.00 in0.0 mm
04:05 AM 53.4°F11.9°C 51.4°F10.8°C 93% 1.0 mph N1.6 kmh N 3.0 mph4.8 kmh 30.14 in1020.7 mb 0.00 in0.0 mm 0.00 in/hr0.0 mm/hr 0.00 in0.0 mm
04:00 AM 53.4°F11.9°C 51.4°F10.8°C 93% 1.0 mph N1.6 kmh N 3.0 mph4.8 kmh 30.14 in1020.7 mb 0.00 in0.0 mm 0.00 in/hr0.0 mm/hr 0.00 in0.0 mm
03:55 AM 53.6°F12.0°C 51.6°F10.9°C 93% 1.0 mph N1.6 kmh N 3.0 mph4.8 kmh 30.14 in1020.7 mb 0.00 in0.0 mm 0.00 in/hr0.0 mm/hr 0.00 in0.0 mm
03:50 AM 53.8°F12.1°C 51.8°F11.0°C 93% 1.0 mph N1.6 kmh N 3.0 mph4.8 kmh 30.14 in1020.7 mb 0.00 in0.0 mm 0.00 in/hr0.0 mm/hr 0.00 in0.0 mm
03:45 AM 53.8°F12.1°C 51.8°F11.0°C 93% 1.0 mph N1.6 kmh N 3.0 mph4.8 kmh 30.14 in1020.7 mb 0.00 in0.0 mm 0.00 in/hr0.0 mm/hr 0.00 in0.0 mm
03:40 AM 54.0°F12.2°C 52.0°F11.1°C 93% 1.0 mph N1.6 kmh N 2.0 mph3.2 kmh 30.14 in1020.7 mb 0.00 in0.0 mm 0.00 in/hr0.0 mm/hr 0.00 in0.0 mm
03:35 AM 54.1°F12.3°C 52.2°F11.2°C 93% 1.0 mph NNW1.6 kmh NNW 2.0 mph3.2 kmh 30.14 in1020.7 mb 0.00 in0.0 mm 0.00 in/hr0.0 mm/hr 0.00 in0.0 mm
03:30 AM 54.3°F12.4°C 52.3°F11.3°C 93% 1.0 mph NW1.6 kmh NW 3.0 mph4.8 kmh 30.14 in1020.7 mb 0.00 in0.0 mm 0.00 in/hr0.0 mm/hr 0.00 in0.0 mm
03:25 AM 54.5°F12.5°C 52.5°F11.4°C 93% 1.0 mph NW1.6 kmh NW 3.0 mph4.8 kmh 30.14 in1020.7 mb 0.00 in0.0 mm 0.00 in/hr0.0 mm/hr 0.00 in0.0 mm
03:20 AM 54.7°F12.6°C 52.7°F11.5°C 93% 1.0 mph NW1.6 kmh NW 4.0 mph6.4 kmh 30.14 in1020.7 mb 0.00 in0.0 mm 0.00 in/hr0.0 mm/hr 0.00 in0.0 mm
03:15 AM 54.9°F12.7°C 52.9°F11.6°C 93% 1.0 mph NNW1.6 kmh NNW 4.0 mph6.4 kmh 30.14 in1020.7 mb 0.00 in0.0 mm 0.00 in/hr0.0 mm/hr 0.00 in0.0 mm
03:10 AM 55.0°F12.8°C 53.3°F11.8°C 94% 1.0 mph NNW1.6 kmh NNW 4.0 mph6.4 kmh 30.14 in1020.7 mb 0.00 in0.0 mm 0.00 in/hr0.0 mm/hr 0.00 in0.0 mm
03:05 AM 55.2°F12.9°C 53.5°F11.9°C 94% 1.0 mph NNW1.6 kmh NNW 2.0 mph3.2 kmh 30.14 in1020.7 mb 0.00 in0.0 mm 0.00 in/hr0.0 mm/hr 0.00 in0.0 mm
03:00 AM 55.2°F12.9°C 53.5°F11.9°C 94% 1.0 mph NNW1.6 kmh NNW 3.0 mph4.8 kmh 30.14 in1020.7 mb 0.00 in0.0 mm 0.00 in/hr0.0 mm/hr 0.00 in0.0 mm
02:55 AM 55.6°F13.1°C 53.9°F12.2°C 94% 1.0 mph NNW1.6 kmh NNW 3.0 mph4.8 kmh 30.14 in1020.7 mb 0.00 in0.0 mm 0.00 in/hr0.0 mm/hr 0.00 in0.0 mm
02:50 AM 55.6°F13.1°C 53.9°F12.2°C 94% 1.0 mph NW1.6 kmh NW 3.0 mph4.8 kmh 30.14 in1020.7 mb 0.00 in0.0 mm 0.00 in/hr0.0 mm/hr 0.00 in0.0 mm
02:45 AM 55.6°F13.1°C 53.9°F12.2°C 94% 1.0 mph NNW1.6 kmh NNW 4.0 mph6.4 kmh 30.14 in1020.7 mb 0.00 in0.0 mm 0.00 in/hr0.0 mm/hr 0.00 in0.0 mm
02:40 AM 55.8°F13.2°C 54.1°F12.3°C 94% 1.0 mph NNW1.6 kmh NNW 4.0 mph6.4 kmh 30.14 in1020.7 mb 0.00 in0.0 mm 0.00 in/hr0.0 mm/hr 0.00 in0.0 mm
02:35 AM 55.8°F13.2°C 54.3°F12.4°C 95% 1.0 mph NNW1.6 kmh NNW 4.0 mph6.4 kmh 30.14 in1020.7 mb 0.00 in0.0 mm 0.00 in/hr0.0 mm/hr 0.00 in0.0 mm
02:30 AM 55.6°F13.1°C 54.2°F12.3°C 95% 1.0 mph NW1.6 kmh NW 3.0 mph4.8 kmh 30.14 in1020.7 mb 0.00 in0.0 mm 0.00 in/hr0.0 mm/hr 0.00 in0.0 mm
02:25 AM 55.6°F13.1°C 54.2°F12.3°C 95% 2.0 mph NW3.2 kmh NW 3.0 mph4.8 kmh 30.14 in1020.7 mb 0.00 in0.0 mm 0.00 in/hr0.0 mm/hr 0.00 in0.0 mm
02:20 AM 55.6°F13.1°C 54.2°F12.3°C 95% 1.0 mph NW1.6 kmh NW 4.0 mph6.4 kmh 30.14 in1020.7 mb 0.00 in0.0 mm 0.00 in/hr0.0 mm/hr 0.00 in0.0 mm
02:15 AM 55.6°F13.1°C 54.2°F12.3°C 95% 1.0 mph NNW1.6 kmh NNW 4.0 mph6.4 kmh 30.14 in1020.7 mb 0.00 in0.0 mm 0.00 in/hr0.0 mm/hr 0.00 in0.0 mm
02:10 AM 55.6°F13.1°C 54.2°F12.3°C 95% 1.0 mph NNW1.6 kmh NNW 4.0 mph6.4 kmh 30.14 in1020.7 mb 0.00 in0.0 mm 0.00 in/hr0.0 mm/hr 0.00 in0.0 mm
02:05 AM 55.8°F13.2°C 54.3°F12.4°C 95% 1.0 mph NNW1.6 kmh NNW 4.0 mph6.4 kmh 30.14 in1020.7 mb 0.00 in0.0 mm 0.00 in/hr0.0 mm/hr 0.00 in0.0 mm
02:00 AM 55.8°F13.2°C 54.3°F12.4°C 95% 1.0 mph N1.6 kmh N 3.0 mph4.8 kmh 30.14 in1020.7 mb 0.00 in0.0 mm 0.00 in/hr0.0 mm/hr 0.00 in0.0 mm
01:55 AM 55.8°F13.2°C 54.6°F12.6°C 96% 1.0 mph NNW1.6 kmh NNW 4.0 mph6.4 kmh 30.14 in1020.7 mb 0.00 in0.0 mm 0.00 in/hr0.0 mm/hr 0.00 in0.0 mm
01:50 AM 55.8°F13.2°C 54.6°F12.6°C 96% 1.0 mph NW1.6 kmh NW 5.0 mph8.0 kmh 30.14 in1020.7 mb 0.00 in0.0 mm 0.00 in/hr0.0 mm/hr 0.00 in0.0 mm
01:45 AM 55.8°F13.2°C 54.6°F12.6°C 96% 1.0 mph NNW1.6 kmh NNW 5.0 mph8.0 kmh 30.14 in1020.7 mb 0.00 in0.0 mm 0.00 in/hr0.0 mm/hr 0.00 in0.0 mm
01:40 AM 55.8°F13.2°C 54.6°F12.6°C 96% 1.0 mph N1.6 kmh N 4.0 mph6.4 kmh 30.14 in1020.7 mb 0.00 in0.0 mm 0.00 in/hr0.0 mm/hr 0.00 in0.0 mm
01:35 AM 55.6°F13.1°C 54.5°F12.5°C 96% 1.0 mph NNW1.6 kmh NNW 5.0 mph8.0 kmh 30.14 in1020.7 mb 0.00 in0.0 mm 0.00 in/hr0.0 mm/hr 0.00 in0.0 mm
01:30 AM 55.6°F13.1°C 54.5°F12.5°C 96% 1.0 mph NW1.6 kmh NW 5.0 mph8.0 kmh 30.14 in1020.7 mb 0.00 in0.0 mm 0.00 in/hr0.0 mm/hr 0.00 in0.0 mm
01:25 AM 55.6°F13.1°C 54.5°F12.5°C 96% 1.0 mph NW1.6 kmh NW 4.0 mph6.4 kmh 30.14 in1020.7 mb 0.00 in0.0 mm 0.00 in/hr0.0 mm/hr 0.00 in0.0 mm
01:20 AM 55.6°F13.1°C 54.5°F12.5°C 96% 1.0 mph N1.6 kmh N 4.0 mph6.4 kmh 30.14 in1020.7 mb 0.00 in0.0 mm 0.00 in/hr0.0 mm/hr 0.00 in0.0 mm
01:15 AM 55.8°F13.2°C 54.6°F12.6°C 96% 1.0 mph N1.6 kmh N 4.0 mph6.4 kmh 30.14 in1020.7 mb 0.00 in0.0 mm 0.00 in/hr0.0 mm/hr 0.00 in0.0 mm
01:10 AM 55.9°F13.3°C 54.8°F12.7°C 96% 1.0 mph NNW1.6 kmh NNW 4.0 mph6.4 kmh 30.14 in1020.7 mb 0.00 in0.0 mm 0.00 in/hr0.0 mm/hr 0.00 in0.0 mm
01:05 AM 55.9°F13.3°C 54.8°F12.7°C 96% 1.0 mph N1.6 kmh N 4.0 mph6.4 kmh 30.14 in1020.7 mb 0.00 in0.0 mm 0.00 in/hr0.0 mm/hr 0.00 in0.0 mm
01:00 AM 56.1°F13.4°C 55.0°F12.8°C 96% 1.0 mph NNE1.6 kmh NNE 4.0 mph6.4 kmh 30.14 in1020.7 mb 0.00 in0.0 mm 0.00 in/hr0.0 mm/hr 0.00 in0.0 mm
12:55 AM 56.5°F13.6°C 55.4°F13.0°C 96% 1.0 mph NE1.6 kmh NE 4.0 mph6.4 kmh 30.14 in1020.7 mb 0.00 in0.0 mm 0.00 in/hr0.0 mm/hr 0.00 in0.0 mm
12:50 AM 56.8°F13.8°C 55.7°F13.2°C 96% 2.0 mph N3.2 kmh N 4.0 mph6.4 kmh 30.14 in1020.7 mb 0.00 in0.0 mm 0.00 in/hr0.0 mm/hr 0.00 in0.0 mm
12:45 AM 57.0°F13.9°C 55.9°F13.3°C 96% 2.0 mph NNW3.2 kmh NNW 5.0 mph8.0 kmh 30.14 in1020.7 mb 0.00 in0.0 mm 0.00 in/hr0.0 mm/hr 0.00 in0.0 mm
12:40 AM 57.6°F14.2°C 56.4°F13.6°C 96% 2.0 mph N3.2 kmh N 6.0 mph9.7 kmh 30.14 in1020.7 mb 0.00 in0.0 mm 0.00 in/hr0.0 mm/hr 0.00 in0.0 mm
12:35 AM 58.1°F14.5°C 57.0°F13.9°C 96% 1.0 mph N1.6 kmh N 6.0 mph9.7 kmh 30.14 in1020.7 mb 0.00 in0.0 mm 0.00 in/hr0.0 mm/hr 0.00 in0.0 mm
12:30 AM 58.5°F14.7°C 57.6°F14.2°C 97% 1.0 mph N1.6 kmh N 4.0 mph6.4 kmh 30.14 in1020.7 mb 0.00 in0.0 mm 0.00 in/hr0.0 mm/hr 0.00 in0.0 mm
12:25 AM 58.6°F14.8°C 57.8°F14.3°C 97% 1.0 mph N1.6 kmh N 4.0 mph6.4 kmh 30.14 in1020.7 mb 0.00 in0.0 mm 0.00 in/hr0.0 mm/hr 0.00 in0.0 mm
12:20 AM 58.8°F14.9°C 58.0°F14.4°C 97% Calm Calm 4.0 mph6.4 kmh 30.14 in1020.7 mb 0.00 in0.0 mm 0.00 in/hr0.0 mm/hr 0.00 in0.0 mm
12:15 AM 59.2°F15.1°C 58.3°F14.6°C 97% Calm Calm 2.0 mph3.2 kmh 30.14 in1020.7 mb 0.00 in0.0 mm 0.00 in/hr0.0 mm/hr 0.00 in0.0 mm
12:10 AM 59.4°F15.2°C 58.5°F14.7°C 97% 1.0 mph NNE1.6 kmh NNE 3.0 mph4.8 kmh 30.14 in1020.7 mb 0.00 in0.0 mm 0.00 in/hr0.0 mm/hr 0.00 in0.0 mm
12:05 AM 59.5°F15.3°C 58.7°F14.8°C 97% 1.0 mph NNW1.6 kmh NNW 3.0 mph4.8 kmh 30.14 in1020.7 mb 0.00 in0.0 mm 0.00 in/hr0.0 mm/hr 0.00 in0.0 mm
12:00 AM 59.7°F15.4°C 58.9°F14.9°C 97% 1.0 mph NNW1.6 kmh NNW 3.0 mph4.8 kmh 30.14 in1020.7 mb 0.00 in0.0 mm 0.00 in/hr0.0 mm/hr 0.00 in0.0 mm